Villa Cavazos, Texas
Current Conditions -  °F | °C
As of 2:53 AM on Monday 24 Nov 2014 (Local Time) from KBRO Reporting Station
Moderate Fog Moderate Fog  
Wind Chill: 68°   Ceiling: 300
Heat Index: 68°   Visibility: 0.25mi
Dew Point: 67°   Wind: 0mph
Humidity: 96%   Direction: NA
Pressure: 29.77"   Gusts: NA
Location:  26.0002°N, 97.5729°W
Report Text: KBRO 240853Z AUTO 00000KT 1/4SM FG VV003 20/19 A2977 RMK AO2 SLP080 T02000194 51004
Loading
Personal Weather Stations






























Interactive Weather Map New forecast layout! Learn more

10-Day Weather Forecast

Advertisements
Track Severe Weather on mobile